sensor_id;sensor_type;location;lat;lon;timestamp;pressure;altitude;pressure_sealevel;temperature;humidity
73429;BME280;61643;49.564;17.412;2023-06-04T00:00:50;98465.25;;;10.22;68.30
73429;BME280;61643;49.564;17.412;2023-06-04T00:03:16;98459.28;;;10.20;68.95
73429;BME280;61643;49.564;17.412;2023-06-04T00:05:42;98468.25;;;10.09;69.44
73429;BME280;61643;49.564;17.412;2023-06-04T00:08:08;98463.69;;;10.26;68.62
73429;BME280;61643;49.564;17.412;2023-06-04T00:10:33;98455.59;;;10.10;70.31
73429;BME280;61643;49.564;17.412;2023-06-04T00:13:00;98464.50;;;10.27;69.09
73429;BME280;61643;49.564;17.412;2023-06-04T00:15:26;98458.56;;;10.25;69.37
73429;BME280;61643;49.564;17.412;2023-06-04T00:17:52;98447.41;;;10.16;69.58
73429;BME280;61643;49.564;17.412;2023-06-04T00:20:18;98452.91;;;10.10;69.68
73429;BME280;61643;49.564;17.412;2023-06-04T00:22:44;98425.53;;;9.91;70.99
73429;BME280;61643;49.564;17.412;2023-06-04T00:25:10;98447.75;;;9.70;71.73
73429;BME280;61643;49.564;17.412;2023-06-04T00:27:36;98443.19;;;9.87;70.48
73429;BME280;61643;49.564;17.412;2023-06-04T00:30:03;98440.91;;;9.79;70.90
73429;BME280;61643;49.564;17.412;2023-06-04T00:32:30;98430.56;;;9.71;71.62
73429;BME280;61643;49.564;17.412;2023-06-04T00:34:56;98441.09;;;9.72;70.95
73429;BME280;61643;49.564;17.412;2023-06-04T00:37:28;98433.28;;;9.71;71.33
73429;BME280;61643;49.564;17.412;2023-06-04T00:39:54;98438.88;;;9.86;69.87
73429;BME280;61643;49.564;17.412;2023-06-04T00:42:20;98438.38;;;9.89;70.05
73429;BME280;61643;49.564;17.412;2023-06-04T00:44:46;98442.97;;;9.72;71.08
73429;BME280;61643;49.564;17.412;2023-06-04T00:47:17;98435.53;;;9.62;72.14
73429;BME280;61643;49.564;17.412;2023-06-04T00:49:44;98432.38;;;9.65;71.41
73429;BME280;61643;49.564;17.412;2023-06-04T00:52:14;98433.94;;;9.61;71.34
73429;BME280;61643;49.564;17.412;2023-06-04T00:54:40;98441.59;;;9.69;70.07
73429;BME280;61643;49.564;17.412;2023-06-04T00:57:06;98439.22;;;9.73;70.11
73429;BME280;61643;49.564;17.412;2023-06-04T00:59:36;98439.38;;;9.83;69.56
73429;BME280;61643;49.564;17.412;2023-06-04T01:02:17;98430.72;;;9.81;69.09
73429;BME280;61643;49.564;17.412;2023-06-04T01:05:26;98434.22;;;9.81;70.08
73429;BME280;61643;49.564;17.412;2023-06-04T01:07:57;98416.25;;;9.65;70.96
73429;BME280;61643;49.564;17.412;2023-06-04T01:10:23;98433.28;;;9.71;70.33
73429;BME280;61643;49.564;17.412;2023-06-04T01:12:49;98433.34;;;9.76;70.30
73429;BME280;61643;49.564;17.412;2023-06-04T01:15:15;98436.38;;;9.79;69.13
73429;BME280;61643;49.564;17.412;2023-06-04T01:17:43;98423.41;;;9.76;69.75
73429;BME280;61643;49.564;17.412;2023-06-04T01:20:27;98432.34;;;9.82;69.35
73429;BME280;61643;49.564;17.412;2023-06-04T01:25:47;98432.41;;;10.04;67.08
73429;BME280;61643;49.564;17.412;2023-06-04T01:28:15;98435.41;;;10.07;67.93
73429;BME280;61643;49.564;17.412;2023-06-04T01:30:44;98435.91;;;10.04;69.09
73429;BME280;61643;49.564;17.412;2023-06-04T01:33:16;98433.31;;;9.93;71.35
73429;BME280;61643;49.564;17.412;2023-06-04T01:35:43;98425.69;;;9.34;74.98
73429;BME280;61643;49.564;17.412;2023-06-04T01:38:10;98423.75;;;9.47;72.93
73429;BME280;61643;49.564;17.412;2023-06-04T01:40:36;98428.00;;;9.43;72.91
73429;BME280;61643;49.564;17.412;2023-06-04T01:43:02;98437.91;;;9.42;73.25
73429;BME280;61643;49.564;17.412;2023-06-04T01:45:29;98440.59;;;9.42;73.57
73429;BME280;61643;49.564;17.412;2023-06-04T01:47:55;98441.81;;;9.34;74.06
73429;BME280;61643;49.564;17.412;2023-06-04T01:50:22;98439.84;;;9.30;74.88
73429;BME280;61643;49.564;17.412;2023-06-04T01:52:49;98445.31;;;9.18;74.38
73429;BME280;61643;49.564;17.412;2023-06-04T01:55:16;98440.06;;;9.12;75.22
73429;BME280;61643;49.564;17.412;2023-06-04T01:57:44;98439.56;;;8.98;75.60
73429;BME280;61643;49.564;17.412;2023-06-04T02:00:11;98440.06;;;8.67;78.43
73429;BME280;61643;49.564;17.412;2023-06-04T02:02:38;98439.53;;;8.81;77.61
73429;BME280;61643;49.564;17.412;2023-06-04T02:05:05;98445.78;;;8.87;76.14
73429;BME280;61643;49.564;17.412;2023-06-04T02:07:35;98449.44;;;8.41;80.18
73429;BME280;61643;49.564;17.412;2023-06-04T02:10:08;98453.53;;;8.32;80.72
73429;BME280;61643;49.564;17.412;2023-06-04T02:12:39;98449.44;;;8.41;80.18
73429;BME280;61643;49.564;17.412;2023-06-04T02:15:06;98447.66;;;8.47;79.32
73429;BME280;61643;49.564;17.412;2023-06-04T02:17:33;98449.66;;;8.39;79.25
73429;BME280;61643;49.564;17.412;2023-06-04T02:20:04;98442.66;;;8.50;77.98
73429;BME280;61643;49.564;17.412;2023-06-04T02:22:31;98449.34;;;8.36;78.34
73429;BME280;61643;49.564;17.412;2023-06-04T02:24:57;98436.72;;;8.48;77.55
73429;BME280;61643;49.564;17.412;2023-06-04T02:27:23;98434.88;;;8.37;77.06
73429;BME280;61643;49.564;17.412;2023-06-04T02:29:49;98435.00;;;8.30;77.56
73429;BME280;61643;49.564;17.412;2023-06-04T02:32:15;98434.66;;;8.38;77.31
73429;BME280;61643;49.564;17.412;2023-06-04T02:34:41;98442.41;;;8.52;76.96
73429;BME280;61643;49.564;17.412;2023-06-04T02:37:07;98433.47;;;8.46;77.40
73429;BME280;61643;49.564;17.412;2023-06-04T02:39:33;98445.75;;;8.30;78.65
73429;BME280;61643;49.564;17.412;2023-06-04T02:41:59;98443.50;;;8.27;78.02
73429;BME280;61643;49.564;17.412;2023-06-04T02:44:25;98444.13;;;8.06;80.31
73429;BME280;61643;49.564;17.412;2023-06-04T02:46:51;98436.31;;;8.16;80.19
73429;BME280;61643;49.564;17.412;2023-06-04T02:49:17;98433.47;;;8.23;78.83
73429;BME280;61643;49.564;17.412;2023-06-04T02:51:43;98443.50;;;8.27;79.19
73429;BME280;61643;49.564;17.412;2023-06-04T02:54:10;98436.88;;;8.18;78.29
73429;BME280;61643;49.564;17.412;2023-06-04T02:56:36;98443.88;;;8.19;78.60
73429;BME280;61643;49.564;17.412;2023-06-04T02:59:03;98442.63;;;7.99;78.45
73429;BME280;61643;49.564;17.412;2023-06-04T03:01:30;98444.34;;;8.05;77.40
73429;BME280;61643;49.564;17.412;2023-06-04T03:03:56;98441.19;;;8.08;77.71
73429;BME280;61643;49.564;17.412;2023-06-04T03:06:26;98447.38;;;8.08;77.54
73429;BME280;61643;49.564;17.412;2023-06-04T03:08:52;98442.59;;;8.10;77.31
73429;BME280;61643;49.564;17.412;2023-06-04T03:11:18;98457.28;;;8.08;77.29
73429;BME280;61643;49.564;17.412;2023-06-04T03:13:48;98449.56;;;8.11;76.16
73429;BME280;61643;49.564;17.412;2023-06-04T03:16:15;98456.31;;;8.25;76.90
73429;BME280;61643;49.564;17.412;2023-06-04T03:18:41;98462.63;;;8.43;76.32
73429;BME280;61643;49.564;17.412;2023-06-04T03:21:08;98465.88;;;8.56;76.57
73429;BME280;61643;49.564;17.412;2023-06-04T03:23:37;98465.56;;;8.29;80.16
73429;BME280;61643;49.564;17.412;2023-06-04T03:26:04;98461.59;;;8.20;80.57
73429;BME280;61643;49.564;17.412;2023-06-04T03:28:31;98466.94;;;8.44;78.93
73429;BME280;61643;49.564;17.412;2023-06-04T03:30:57;98472.09;;;8.73;79.14
73429;BME280;61643;49.564;17.412;2023-06-04T03:33:24;98479.50;;;8.95;79.21
73429;BME280;61643;49.564;17.412;2023-06-04T03:35:51;98481.75;;;8.86;79.72
73429;BME280;61643;49.564;17.412;2023-06-04T03:38:19;98483.81;;;8.96;81.37
73429;BME280;61643;49.564;17.412;2023-06-04T03:40:45;98475.56;;;9.14;79.72
73429;BME280;61643;49.564;17.412;2023-06-04T03:43:11;98482.97;;;9.23;78.70
73429;BME280;61643;49.564;17.412;2023-06-04T03:45:37;98479.59;;;9.45;79.19
73429;BME280;61643;49.564;17.412;2023-06-04T03:48:03;98471.72;;;9.55;79.31
73429;BME280;61643;49.564;17.412;2023-06-04T03:50:29;98470.41;;;9.74;79.52
73429;BME280;61643;49.564;17.412;2023-06-04T03:52:55;98477.25;;;9.65;80.04
73429;BME280;61643;49.564;17.412;2023-06-04T03:55:21;98472.00;;;9.92;80.05
73429;BME280;61643;49.564;17.412;2023-06-04T03:57:48;98480.56;;;10.05;77.31
73429;BME280;61643;49.564;17.412;2023-06-04T04:00:14;98477.50;;;9.80;79.49
73429;BME280;61643;49.564;17.412;2023-06-04T04:02:41;98485.47;;;9.92;78.02
73429;BME280;61643;49.564;17.412;2023-06-04T04:05:07;98494.34;;;9.92;77.47
73429;BME280;61643;49.564;17.412;2023-06-04T04:07:33;98493.16;;;10.16;77.07
73429;BME280;61643;49.564;17.412;2023-06-04T04:09:59;98499.69;;;10.64;75.28
73429;BME280;61643;49.564;17.412;2023-06-04T04:12:25;98489.00;;;10.91;74.17
73429;BME280;61643;49.564;17.412;2023-06-04T04:14:51;98502.22;;;11.19;73.68
73429;BME280;61643;49.564;17.412;2023-06-04T04:17:17;98504.88;;;11.41;72.64
73429;BME280;61643;49.564;17.412;2023-06-04T04:19:43;98509.06;;;11.53;73.29
73429;BME280;61643;49.564;17.412;2023-06-04T04:22:12;98509.81;;;11.75;71.71
73429;BME280;61643;49.564;17.412;2023-06-04T04:24:38;98510.75;;;11.91;70.46
73429;BME280;61643;49.564;17.412;2023-06-04T04:27:04;98513.38;;;11.81;72.36
73429;BME280;61643;49.564;17.412;2023-06-04T04:29:31;98503.25;;;11.98;69.86
73429;BME280;61643;49.564;17.412;2023-06-04T04:32:01;98500.03;;;12.01;69.34
73429;BME280;61643;49.564;17.412;2023-06-04T04:34:37;98493.03;;;12.00;70.48
73429;BME280;61643;49.564;17.412;2023-06-04T04:37:05;98504.09;;;12.04;68.78
73429;BME280;61643;49.564;17.412;2023-06-04T04:39:35;98497.19;;;12.23;69.00
73429;BME280;61643;49.564;17.412;2023-06-04T04:42:02;98495.31;;;12.23;69.77
73429;BME280;61643;49.564;17.412;2023-06-04T04:44:28;98493.91;;;12.16;69.67
73429;BME280;61643;49.564;17.412;2023-06-04T04:46:55;98500.03;;;12.01;70.14
73429;BME280;61643;49.564;17.412;2023-06-04T04:49:20;98487.22;;;11.81;69.64
73429;BME280;61643;49.564;17.412;2023-06-04T04:51:46;98488.28;;;11.80;71.29
73429;BME280;61643;49.564;17.412;2023-06-04T04:54:12;98490.06;;;12.02;68.80
73429;BME280;61643;49.564;17.412;2023-06-04T04:56:38;98483.94;;;12.11;70.56
73429;BME280;61643;49.564;17.412;2023-06-04T04:59:04;98497.31;;;12.38;68.69
73429;BME280;61643;49.564;17.412;2023-06-04T05:01:30;98496.78;;;12.41;69.69
73429;BME280;61643;49.564;17.412;2023-06-04T05:03:56;98505.97;;;12.45;67.31
73429;BME280;61643;49.564;17.412;2023-06-04T05:06:22;98488.75;;;12.51;69.10
73429;BME280;61643;49.564;17.412;2023-06-04T05:08:48;98489.25;;;12.43;71.06
73429;BME280;61643;49.564;17.412;2023-06-04T05:11:14;98483.72;;;12.75;69.12
73429;BME280;61643;49.564;17.412;2023-06-04T05:13:40;98482.19;;;12.99;67.52
73429;BME280;61643;49.564;17.412;2023-06-04T05:16:07;98485.97;;;13.03;68.14
73429;BME280;61643;49.564;17.412;2023-06-04T05:18:34;98498.38;;;12.89;66.28
73429;BME280;61643;49.564;17.412;2023-06-04T05:21:00;98491.88;;;12.85;66.41
73429;BME280;61643;49.564;17.412;2023-06-04T05:23:28;98492.41;;;12.82;65.78
73429;BME280;61643;49.564;17.412;2023-06-04T05:25:55;98492.69;;;12.86;62.70
73429;BME280;61643;49.564;17.412;2023-06-04T05:28:21;98494.06;;;12.93;62.01
73429;BME280;61643;49.564;17.412;2023-06-04T05:30:53;98501.75;;;13.16;61.91
73429;BME280;61643;49.564;17.412;2023-06-04T05:33:24;98501.75;;;13.16;60.42
73429;BME280;61643;49.564;17.412;2023-06-04T05:35:50;98508.50;;;13.19;62.07
73429;BME280;61643;49.564;17.412;2023-06-04T05:38:24;98509.19;;;12.99;61.98
73429;BME280;61643;49.564;17.412;2023-06-04T05:40:56;98510.69;;;13.27;62.81
73429;BME280;61643;49.564;17.412;2023-06-04T05:43:22;98502.34;;;13.44;62.86
73429;BME280;61643;49.564;17.412;2023-06-04T05:45:49;98510.44;;;13.44;62.43
73429;BME280;61643;49.564;17.412;2023-06-04T05:48:15;98506.69;;;13.65;63.70
73429;BME280;61643;49.564;17.412;2023-06-04T05:50:41;98512.09;;;13.75;62.93
73429;BME280;61643;49.564;17.412;2023-06-04T05:53:07;98515.34;;;13.77;61.43
73429;BME280;61643;49.564;17.412;2023-06-04T05:55:33;98511.84;;;13.87;61.62
73429;BME280;61643;49.564;17.412;2023-06-04T05:57:59;98514.28;;;13.88;63.28
73429;BME280;61643;49.564;17.412;2023-06-04T06:00:25;98509.41;;;13.95;63.11
73429;BME280;61643;49.564;17.412;2023-06-04T06:02:51;98523.75;;;14.01;60.97
73429;BME280;61643;49.564;17.412;2023-06-04T06:05:19;98528.06;;;13.97;60.58
73429;BME280;61643;49.564;17.412;2023-06-04T06:07:45;98528.59;;;13.94;60.44
73429;BME280;61643;49.564;17.412;2023-06-04T06:10:12;98525.09;;;13.98;60.92
73429;BME280;61643;49.564;17.412;2023-06-04T06:12:39;98526.72;;;13.99;60.93
73429;BME280;61643;49.564;17.412;2023-06-04T06:15:05;98522.69;;;14.07;60.84
73429;BME280;61643;49.564;17.412;2023-06-04T06:17:32;98532.94;;;14.20;60.11
73429;BME280;61643;49.564;17.412;2023-06-04T06:19:58;98533.22;;;14.03;65.62
73429;BME280;61643;49.564;17.412;2023-06-04T06:22:24;98536.75;;;13.99;61.27
73429;BME280;61643;49.564;17.412;2023-06-04T06:24:51;98539.72;;;14.12;61.17
73429;BME280;61643;49.564;17.412;2023-06-04T06:27:17;98540.25;;;14.14;60.32
73429;BME280;61643;49.564;17.412;2023-06-04T06:29:43;98537.00;;;14.12;61.05
73429;BME280;61643;49.564;17.412;2023-06-04T06:32:10;98538.34;;;14.15;62.18
73429;BME280;61643;49.564;17.412;2023-06-04T06:34:36;98535.13;;;14.18;62.20
73429;BME280;61643;49.564;17.412;2023-06-04T06:37:06;98536.47;;;14.20;62.55
73429;BME280;61643;49.564;17.412;2023-06-04T06:39:32;98532.69;;;14.47;61.96
73429;BME280;61643;49.564;17.412;2023-06-04T06:41:58;98530.44;;;14.79;61.05
73429;BME280;61643;49.564;17.412;2023-06-04T06:44:24;98523.88;;;14.90;61.75
73429;BME280;61643;49.564;17.412;2023-06-04T06:46:50;98528.22;;;14.86;60.95
73429;BME280;61643;49.564;17.412;2023-06-04T06:49:16;98528.75;;;14.88;61.19
73429;BME280;61643;49.564;17.412;2023-06-04T06:51:42;98521.19;;;14.80;61.08
73429;BME280;61643;49.564;17.412;2023-06-04T06:54:09;98536.09;;;14.77;62.22
73429;BME280;61643;49.564;17.412;2023-06-04T06:56:35;98536.09;;;14.72;62.08
73429;BME280;61643;49.564;17.412;2023-06-04T06:59:01;98537.47;;;14.70;63.58
73429;BME280;61643;49.564;17.412;2023-06-04T07:01:27;98538.78;;;14.88;62.58
73429;BME280;61643;49.564;17.412;2023-06-04T07:03:53;98553.66;;;15.00;63.92
73429;BME280;61643;49.564;17.412;2023-06-04T07:06:19;98532.47;;;15.07;64.78
73429;BME280;61643;49.564;17.412;2023-06-04T07:08:45;98544.34;;;15.16;64.08
73429;BME280;61643;49.564;17.412;2023-06-04T07:11:13;98553.19;;;15.42;63.81
73429;BME280;61643;49.564;17.412;2023-06-04T07:13:39;98552.31;;;15.57;62.31
73429;BME280;61643;49.564;17.412;2023-06-04T07:16:05;98547.94;;;15.61;62.09
73429;BME280;61643;49.564;17.412;2023-06-04T07:18:32;98542.75;;;15.69;62.11
73429;BME280;61643;49.564;17.412;2023-06-04T07:20:58;98553.28;;;15.76;65.90
73429;BME280;61643;49.564;17.412;2023-06-04T07:23:24;98556.50;;;15.83;62.69
73429;BME280;61643;49.564;17.412;2023-06-04T07:25:51;98559.53;;;15.77;61.08
73429;BME280;61643;49.564;17.412;2023-06-04T07:28:17;98559.22;;;15.83;60.85
73429;BME280;61643;49.564;17.412;2023-06-04T07:30:45;98553.78;;;15.83;61.79
73429;BME280;61643;49.564;17.412;2023-06-04T07:33:12;98552.44;;;15.81;64.20
73429;BME280;61643;49.564;17.412;2023-06-04T07:35:38;98553.81;;;15.78;61.91
73429;BME280;61643;49.564;17.412;2023-06-04T07:38:04;98553.91;;;15.63;64.75
73429;BME280;61643;49.564;17.412;2023-06-04T07:40:30;98550.66;;;15.66;64.25
73429;BME280;61643;49.564;17.412;2023-06-04T07:42:56;98549.53;;;15.67;67.11
73429;BME280;61643;49.564;17.412;2023-06-04T07:45:22;98544.09;;;15.72;66.73
73429;BME280;61643;49.564;17.412;2023-06-04T07:47:48;98556.50;;;15.83;65.85
73429;BME280;61643;49.564;17.412;2023-06-04T07:50:14;98548.03;;;15.90;64.47
73429;BME280;61643;49.564;17.412;2023-06-04T07:52:40;98549.34;;;15.92;64.63
73429;BME280;61643;49.564;17.412;2023-06-04T07:55:06;98550.13;;;15.98;63.66
73429;BME280;61643;49.564;17.412;2023-06-04T07:57:34;98554.34;;;15.80;64.89
73429;BME280;61643;49.564;17.412;2023-06-04T08:00:00;98554.97;;;16.06;64.05
73429;BME280;61643;49.564;17.412;2023-06-04T08:02:29;98562.50;;;16.14;62.61
73429;BME280;61643;49.564;17.412;2023-06-04T08:04:55;98559.16;;;16.22;61.96
73429;BME280;61643;49.564;17.412;2023-06-04T08:07:22;98560.69;;;16.33;61.92
73429;BME280;61643;49.564;17.412;2023-06-04T08:09:48;98549.75;;;16.43;64.62
73429;BME280;61643;49.564;17.412;2023-06-04T08:12:16;98561.31;;;16.54;64.26
73429;BME280;61643;49.564;17.412;2023-06-04T08:14:42;98558.88;;;16.57;62.31
73429;BME280;61643;49.564;17.412;2023-06-04T08:17:08;98553.16;;;16.54;64.54
73429;BME280;61643;49.564;17.412;2023-06-04T08:19:34;98558.31;;;16.55;63.92
73429;BME280;61643;49.564;17.412;2023-06-04T08:22:00;98564.78;;;16.64;66.15
73429;BME280;61643;49.564;17.412;2023-06-04T08:24:26;98565.78;;;16.73;64.21
73429;BME280;61643;49.564;17.412;2023-06-04T08:26:52;98564.97;;;16.73;63.80
73429;BME280;61643;49.564;17.412;2023-06-04T08:29:18;98564.84;;;16.83;64.18
73429;BME280;61643;49.564;17.412;2023-06-04T08:31:44;98566.66;;;16.93;66.27
73429;BME280;61643;49.564;17.412;2023-06-04T08:34:10;98573.59;;;17.04;63.73
73429;BME280;61643;49.564;17.412;2023-06-04T08:36:36;98570.53;;;17.10;63.12
73429;BME280;61643;49.564;17.412;2023-06-04T08:39:02;98571.69;;;17.04;64.86
73429;BME280;61643;49.564;17.412;2023-06-04T08:41:45;98570.94;;;16.99;59.68
73429;BME280;61643;49.564;17.412;2023-06-04T08:44:11;98572.59;;;17.18;61.00
73429;BME280;61643;49.564;17.412;2023-06-04T08:46:38;98573.00;;;17.31;62.19
73429;BME280;61643;49.564;17.412;2023-06-04T08:49:26;98578.66;;;17.34;61.79
73429;BME280;61643;49.564;17.412;2023-06-04T08:51:52;98569.91;;;17.37;61.33
73429;BME280;61643;49.564;17.412;2023-06-04T08:54:18;98555.16;;;17.43;60.66
73429;BME280;61643;49.564;17.412;2023-06-04T08:56:44;98568.31;;;17.55;60.96
73429;BME280;61643;49.564;17.412;2023-06-04T08:59:11;98561.84;;;17.51;62.71
73429;BME280;61643;49.564;17.412;2023-06-04T09:01:40;98562.84;;;17.60;60.46
73429;BME280;61643;49.564;17.412;2023-06-04T09:04:10;98568.66;;;17.72;60.20
73429;BME280;61643;49.564;17.412;2023-06-04T09:06:37;98559.81;;;17.80;57.08
73429;BME280;61643;49.564;17.412;2023-06-04T09:09:05;98557.53;;;17.87;53.42
73429;BME280;61643;49.564;17.412;2023-06-04T09:11:37;98563.56;;;17.84;51.14
73429;BME280;61643;49.564;17.412;2023-06-04T09:14:07;98559.47;;;17.87;51.77
73429;BME280;61643;49.564;17.412;2023-06-04T09:19:14;98570.31;;;18.05;53.90
73429;BME280;61643;49.564;17.412;2023-06-04T09:21:50;98565.63;;;18.11;52.90
73429;BME280;61643;49.564;17.412;2023-06-04T09:24:17;98560.88;;;18.16;53.94
73429;BME280;61643;49.564;17.412;2023-06-04T09:26:43;98568.38;;;18.25;54.44
73429;BME280;61643;49.564;17.412;2023-06-04T09:29:09;98562.34;;;18.28;55.44
73429;BME280;61643;49.564;17.412;2023-06-04T09:31:35;98560.34;;;18.33;54.10
73429;BME280;61643;49.564;17.412;2023-06-04T09:34:03;98556.50;;;18.34;53.24
73429;BME280;61643;49.564;17.412;2023-06-04T09:36:33;98559.28;;;18.48;54.71
73429;BME280;61643;49.564;17.412;2023-06-04T09:39:15;98552.41;;;18.50;52.78
73429;BME280;61643;49.564;17.412;2023-06-04T09:41:41;98550.75;;;18.54;53.06
73429;BME280;61643;49.564;17.412;2023-06-04T09:44:07;98554.78;;;18.57;53.13
73429;BME280;61643;49.564;17.412;2023-06-04T09:46:36;98556.91;;;18.60;52.81
73429;BME280;61643;49.564;17.412;2023-06-04T09:49:04;98550.84;;;18.63;51.78
73429;BME280;61643;49.564;17.412;2023-06-04T09:51:30;98566.31;;;18.67;54.94
73429;BME280;61643;49.564;17.412;2023-06-04T09:54:02;98561.47;;;18.78;55.71
73429;BME280;61643;49.564;17.412;2023-06-04T09:56:28;98564.81;;;18.89;54.84
73429;BME280;61643;49.564;17.412;2023-06-04T09:58:56;98559.88;;;18.91;51.65
73429;BME280;61643;49.564;17.412;2023-06-04T10:01:32;98564.31;;;19.00;53.52
73429;BME280;61643;49.564;17.412;2023-06-04T10:04:03;98557.34;;;18.94;48.79
73429;BME280;61643;49.564;17.412;2023-06-04T10:06:33;98560.06;;;18.94;48.26
73429;BME280;61643;49.564;17.412;2023-06-04T10:09:07;98560.28;;;18.98;51.12
73429;BME280;61643;49.564;17.412;2023-06-04T10:11:56;98558.84;;;19.00;49.02
73429;BME280;61643;49.564;17.412;2023-06-04T10:14:30;98554.41;;;19.04;49.37
73429;BME280;61643;49.564;17.412;2023-06-04T10:17:00;98556.53;;;19.07;49.13
73429;BME280;61643;49.564;17.412;2023-06-04T10:19:27;98552.69;;;19.08;48.53
73429;BME280;61643;49.564;17.412;2023-06-04T10:21:53;98555.34;;;19.13;51.30
73429;BME280;61643;49.564;17.412;2023-06-04T10:24:20;98558.06;;;19.13;50.41
73429;BME280;61643;49.564;17.412;2023-06-04T10:26:48;98555.94;;;19.24;51.75
73429;BME280;61643;49.564;17.412;2023-06-04T10:29:16;98557.72;;;19.29;49.44
73429;BME280;61643;49.564;17.412;2023-06-04T10:31:43;98564.53;;;19.31;49.67
73429;BME280;61643;49.564;17.412;2023-06-04T10:34:11;98560.06;;;19.35;49.14
73429;BME280;61643;49.564;17.412;2023-06-04T10:36:45;98564.34;;;19.41;51.58
73429;BME280;61643;49.564;17.412;2023-06-04T10:39:11;98566.50;;;19.39;45.41
73429;BME280;61643;49.564;17.412;2023-06-04T10:41:38;98565.63;;;19.44;46.95
73429;BME280;61643;49.564;17.412;2023-06-04T10:44:04;98565.53;;;19.49;48.44
73429;BME280;61643;49.564;17.412;2023-06-04T10:46:40;98565.41;;;19.54;50.85
73429;BME280;61643;49.564;17.412;2023-06-04T10:49:09;98566.13;;;19.59;48.46
73429;BME280;61643;49.564;17.412;2023-06-04T10:51:36;98566.75;;;19.56;46.89
73429;BME280;61643;49.564;17.412;2023-06-04T10:54:05;98550.56;;;19.60;52.74
73429;BME280;61643;49.564;17.412;2023-06-04T10:56:32;98569.44;;;19.70;50.98
73429;BME280;61643;49.564;17.412;2023-06-04T10:58:59;98555.66;;;19.75;49.42
73429;BME280;61643;49.564;17.412;2023-06-04T11:01:29;98553.00;;;19.84;49.21
73429;BME280;61643;49.564;17.412;2023-06-04T11:03:56;98556.44;;;19.89;50.41
73429;BME280;61643;49.564;17.412;2023-06-04T11:06:22;98550.84;;;19.94;49.68
73429;BME280;61643;49.564;17.412;2023-06-04T11:09:02;98552.03;;;20.02;49.81
73429;BME280;61643;49.564;17.412;2023-06-04T11:11:28;98554.47;;;20.03;50.08
73429;BME280;61643;49.564;17.412;2023-06-04T11:13:54;98555.75;;;20.06;50.95
73429;BME280;61643;49.564;17.412;2023-06-04T11:16:20;98558.75;;;20.18;51.80
73429;BME280;61643;49.564;17.412;2023-06-04T11:18:56;98550.50;;;20.32;51.27
73429;BME280;61643;49.564;17.412;2023-06-04T11:21:23;98554.22;;;20.36;48.32
73429;BME280;61643;49.564;17.412;2023-06-04T11:23:54;98556.41;;;20.47;49.76
73429;BME280;61643;49.564;17.412;2023-06-04T11:26:21;98553.69;;;20.56;48.45
73429;BME280;61643;49.564;17.412;2023-06-04T11:28:49;98556.78;;;20.63;47.89
73429;BME280;61643;49.564;17.412;2023-06-04T11:31:15;98556.34;;;20.70;47.74
73429;BME280;61643;49.564;17.412;2023-06-04T11:33:42;98554.28;;;20.75;47.23
73429;BME280;61643;49.564;17.412;2023-06-04T11:36:09;98555.41;;;20.74;46.22
73429;BME280;61643;49.564;17.412;2023-06-04T11:38:36;98549.63;;;20.76;47.22
73429;BME280;61643;49.564;17.412;2023-06-04T11:41:02;98549.13;;;20.74;47.59
73429;BME280;61643;49.564;17.412;2023-06-04T11:43:31;98551.75;;;20.79;46.64
73429;BME280;61643;49.564;17.412;2023-06-04T11:45:57;98548.38;;;20.82;47.78
73429;BME280;61643;49.564;17.412;2023-06-04T11:48:23;98549.66;;;20.84;48.26
73429;BME280;61643;49.564;17.412;2023-06-04T11:50:50;98550.34;;;20.90;49.24
73429;BME280;61643;49.564;17.412;2023-06-04T11:53:16;98554.88;;;20.94;45.17
73429;BME280;61643;49.564;17.412;2023-06-04T11:55:42;98556.81;;;20.94;45.85
73429;BME280;61643;49.564;17.412;2023-06-04T11:58:08;98552.63;;;20.96;45.42
73429;BME280;61643;49.564;17.412;2023-06-04T12:00:35;98561.34;;;21.07;45.31
73429;BME280;61643;49.564;17.412;2023-06-04T12:03:01;98560.91;;;21.14;45.88
73429;BME280;61643;49.564;17.412;2023-06-04T12:05:31;98560.78;;;21.19;47.02
73429;BME280;61643;49.564;17.412;2023-06-04T12:08:08;98563.53;;;21.27;45.11
73429;BME280;61643;49.564;17.412;2023-06-04T12:10:41;98560.34;;;21.34;44.96
73429;BME280;61643;49.564;17.412;2023-06-04T12:13:08;98553.72;;;21.35;44.48
73429;BME280;61643;49.564;17.412;2023-06-04T12:15:35;98558.72;;;21.33;44.66
73429;BME280;61643;49.564;17.412;2023-06-04T12:18:01;98550.38;;;21.38;45.30
73429;BME280;61643;49.564;17.412;2023-06-04T12:20:40;98547.63;;;21.38;46.38
73429;BME280;61643;49.564;17.412;2023-06-04T12:23:07;98548.41;;;21.38;46.49
73429;BME280;61643;49.564;17.412;2023-06-04T12:25:34;98551.00;;;21.35;47.79
73429;BME280;61643;49.564;17.412;2023-06-04T12:28:03;98544.72;;;21.43;47.94
73429;BME280;61643;49.564;17.412;2023-06-04T12:30:39;98542.19;;;21.55;48.94
73429;BME280;61643;49.564;17.412;2023-06-04T12:33:06;98542.50;;;21.53;48.58
73429;BME280;61643;49.564;17.412;2023-06-04T12:35:33;98548.81;;;21.63;49.80
73429;BME280;61643;49.564;17.412;2023-06-04T12:37:59;98536.25;;;21.70;52.05
73429;BME280;61643;49.564;17.412;2023-06-04T12:40:25;98538.00;;;21.66;48.36
73429;BME280;61643;49.564;17.412;2023-06-04T12:42:51;98533.00;;;21.68;50.30
73429;BME280;61643;49.564;17.412;2023-06-04T12:45:17;98533.50;;;21.70;49.74
73429;BME280;61643;49.564;17.412;2023-06-04T12:47:43;98536.56;;;21.77;50.93
73429;BME280;61643;49.564;17.412;2023-06-04T12:50:10;98536.84;;;21.67;50.41
73429;BME280;61643;49.564;17.412;2023-06-04T12:52:36;98535.75;;;21.59;49.75
73429;BME280;61643;49.564;17.412;2023-06-04T12:55:02;98540.22;;;21.47;49.80
73429;BME280;61643;49.564;17.412;2023-06-04T12:57:28;98537.00;;;21.45;49.26
73429;BME280;61643;49.564;17.412;2023-06-04T12:59:54;98543.00;;;21.55;49.84